createdAt,value
2023-11-27T00:01:41.513Z,100293.09
2023-11-27T00:04:08.148Z,100287.34
2023-11-27T00:06:34.602Z,100290.31
2023-11-27T00:09:01.046Z,100290.75
2023-11-27T00:11:27.466Z,100282.06
2023-11-27T00:13:53.839Z,100280.81
2023-11-27T00:16:20.348Z,100280.22
2023-11-27T00:18:48.038Z,100271.44
2023-11-27T00:21:14.883Z,100268.44
2023-11-27T00:23:42.786Z,100266.81
2023-11-27T00:26:09.160Z,100263.13
2023-11-27T00:28:35.578Z,100263.59
2023-11-27T00:31:02.120Z,100249.34
2023-11-27T00:33:28.674Z,100248.94
2023-11-27T00:35:55.095Z,100240.06
2023-11-27T00:38:21.530Z,100246.00
2023-11-27T00:40:47.896Z,100243.22
2023-11-27T00:43:14.388Z,100237.53
2023-11-27T00:45:41.188Z,100244.22
2023-11-27T00:48:07.950Z,100230.22
2023-11-27T00:50:34.620Z,100234.72
2023-11-27T00:53:00.995Z,100229.31
2023-11-27T00:55:27.455Z,100218.38
2023-11-27T00:57:53.877Z,100213.56
2023-11-27T01:00:20.632Z,100211.72
2023-11-27T01:02:47.189Z,100203.16
2023-11-27T01:05:16.546Z,100203.44
2023-11-27T01:07:43.123Z,100188.63
2023-11-27T01:10:10.769Z,100194.69
2023-11-27T01:12:44.221Z,100183.97
2023-11-27T01:15:14.833Z,100186.75
2023-11-27T01:17:41.571Z,100182.03
2023-11-27T01:20:09.582Z,100169.59
2023-11-27T01:22:36.899Z,100167.78
2023-11-27T01:25:04.203Z,100177.22
2023-11-27T01:27:31.839Z,100158.34
2023-11-27T01:29:58.321Z,100157.19
2023-11-27T01:32:27.858Z,100151.94
2023-11-27T01:34:54.350Z,100148.38
2023-11-27T01:37:21.219Z,100140.91
2023-11-27T01:39:47.990Z,100135.75
2023-11-27T01:42:14.521Z,100132.53
2023-11-27T01:44:40.924Z,100116.34
2023-11-27T01:47:09.119Z,100120.25
2023-11-27T01:49:35.727Z,100118.53
2023-11-27T01:52:02.899Z,100111.75
2023-11-27T01:54:30.762Z,100105.16
2023-11-27T01:56:58.842Z,100098.19
2023-11-27T01:59:26.038Z,100097.38
2023-11-27T02:01:53.124Z,100099.44
2023-11-27T02:04:19.897Z,100086.19
2023-11-27T02:06:46.363Z,100096.19
2023-11-27T02:09:14.564Z,100081.63
2023-11-27T02:11:45.370Z,100076.44
2023-11-27T02:14:12.025Z,100077.59
2023-11-27T02:16:38.543Z,100071.66
2023-11-27T02:19:05.015Z,100069.00
2023-11-27T02:21:31.412Z,100068.84
2023-11-27T02:23:57.804Z,100065.63
2023-11-27T02:26:24.157Z,100059.41
2023-11-27T02:28:50.544Z,100062.41
2023-11-27T02:31:17.281Z,100061.97
2023-11-27T02:33:43.794Z,100059.53
2023-11-27T02:36:10.463Z,100050.44
2023-11-27T02:38:37.227Z,100046.56
2023-11-27T02:41:04.898Z,100041.28
2023-11-27T02:43:31.288Z,100044.94
2023-11-27T02:45:57.851Z,100031.28
2023-11-27T02:48:24.717Z,100034.59
2023-11-27T02:50:51.197Z,100023.81
2023-11-27T02:53:17.889Z,100021.28
2023-11-27T02:55:44.382Z,100013.91
2023-11-27T02:58:10.783Z,100001.91
2023-11-27T03:00:38.650Z,100002.22
2023-11-27T03:03:05.475Z,99995.91
2023-11-27T03:05:31.849Z,99993.38
2023-11-27T03:07:58.409Z,99991.38
2023-11-27T03:10:24.834Z,99989.22
2023-11-27T03:12:51.535Z,99988.06
2023-11-27T03:15:19.499Z,99981.88
2023-11-27T03:17:45.913Z,99980.41
2023-11-27T03:20:13.226Z,99974.88
2023-11-27T03:22:40.822Z,99977.88
2023-11-27T03:25:07.658Z,99971.78
2023-11-27T03:27:34.052Z,99969.69
2023-11-27T03:30:04.660Z,99966.63
2023-11-27T03:32:32.408Z,99968.44
2023-11-27T03:34:59.290Z,99958.13
2023-11-27T03:37:25.727Z,99956.97
2023-11-27T03:39:52.234Z,99953.97
2023-11-27T03:42:18.916Z,99953.75
2023-11-27T03:44:45.288Z,99952.38
2023-11-27T03:47:11.653Z,99943.06
2023-11-27T03:49:38.272Z,99932.63
2023-11-27T03:52:05.191Z,99945.69
2023-11-27T03:54:31.836Z,99935.84
2023-11-27T03:56:58.213Z,99928.00
2023-11-27T03:59:24.872Z,99921.59
2023-11-27T04:01:51.576Z,99913.78
2023-11-27T04:04:18.138Z,99915.84
2023-11-27T04:06:45.905Z,99911.38
2023-11-27T04:09:14.391Z,99899.31
2023-11-27T04:11:41.071Z,99904.94
2023-11-27T04:14:07.794Z,99899.31
2023-11-27T04:16:34.362Z,99892.97
2023-11-27T04:19:01.014Z,99888.06
2023-11-27T04:21:27.438Z,99880.25
2023-11-27T04:23:53.913Z,99869.66
2023-11-27T04:26:23.353Z,99868.28
2023-11-27T04:28:50.529Z,99864.06
2023-11-27T04:31:17.074Z,99859.31
2023-11-27T04:33:43.576Z,99861.50
2023-11-27T04:36:10.546Z,99852.81
2023-11-27T04:38:37.390Z,99845.31
2023-11-27T04:41:03.948Z,99839.56
2023-11-27T04:43:30.398Z,99839.56
2023-11-27T04:45:56.855Z,99839.44
2023-11-27T04:48:23.543Z,99844.28
2023-11-27T04:50:49.962Z,99833.59
2023-11-27T04:53:16.376Z,99832.69
2023-11-27T04:55:42.912Z,99828.91
2023-11-27T04:58:09.330Z,99830.28
2023-11-27T05:00:35.791Z,99828.56
2023-11-27T05:03:02.329Z,99819.16
2023-11-27T05:05:28.726Z,99813.84
2023-11-27T05:07:55.473Z,99822.78
2023-11-27T05:10:21.970Z,99808.56
2023-11-27T05:12:48.570Z,99806.22
2023-11-27T05:15:15.265Z,99803.84
2023-11-27T05:17:41.861Z,99798.91
2023-11-27T05:20:10.451Z,99799.00
2023-11-27T05:22:37.611Z,99788.59
2023-11-27T05:25:04.848Z,99776.63
2023-11-27T05:27:31.287Z,99780.75
2023-11-27T05:29:57.797Z,99771.56
2023-11-27T05:32:24.231Z,99762.00
2023-11-27T05:34:50.571Z,99763.16
2023-11-27T05:37:17.066Z,99762.13
2023-11-27T05:39:43.965Z,99757.41
2023-11-27T05:42:13.451Z,99755.22
2023-11-27T05:44:41.329Z,99752.19
2023-11-27T05:47:10.625Z,99746.78
2023-11-27T05:49:37.111Z,99739.31
2023-11-27T05:52:04.419Z,99732.66
2023-11-27T05:54:31.008Z,99734.50
2023-11-27T05:56:57.434Z,99732.22
2023-11-27T05:59:23.858Z,99725.44
2023-11-27T06:01:50.290Z,99723.81
2023-11-27T06:04:17.122Z,99719.81
2023-11-27T06:06:43.619Z,99723.81
2023-11-27T06:09:10.039Z,99718.44
2023-11-27T06:11:36.527Z,99722.88
2023-11-27T06:14:02.902Z,99721.06
2023-11-27T06:16:29.483Z,99713.66
2023-11-27T06:18:56.229Z,99706.78
2023-11-27T06:21:23.786Z,99698.41
2023-11-27T06:23:52.693Z,99702.66
2023-11-27T06:26:19.538Z,99697.94
2023-11-27T06:28:46.122Z,99689.03
2023-11-27T06:31:12.764Z,99688.66
2023-11-27T06:33:39.402Z,99690.06
2023-11-27T06:36:06.560Z,99679.53
2023-11-27T06:38:32.882Z,99675.78
2023-11-27T06:40:59.461Z,99668.91
2023-11-27T06:43:26.078Z,99659.38
2023-11-27T06:45:53.499Z,99663.53
2023-11-27T06:48:20.822Z,99668.38
2023-11-27T06:50:48.417Z,99649.22
2023-11-27T06:53:14.988Z,99645.66
2023-11-27T06:55:41.331Z,99643.13
2023-11-27T06:58:08.691Z,99638.69
2023-11-27T07:00:35.128Z,99625.00
2023-11-27T07:03:01.869Z,99620.75
2023-11-27T07:05:28.260Z,99618.16
2023-11-27T07:07:54.719Z,99603.00
2023-11-27T07:10:21.118Z,99603.00
2023-11-27T07:12:47.533Z,99591.75
2023-11-27T07:15:13.942Z,99591.41
2023-11-27T07:17:40.521Z,99581.91
2023-11-27T07:20:07.832Z,99575.03
2023-11-27T07:22:34.302Z,99561.06
2023-11-27T07:25:00.785Z,99546.16
2023-11-27T07:27:28.188Z,99534.34
2023-11-27T07:29:54.872Z,99540.88
2023-11-27T07:32:21.384Z,99530.78
2023-11-27T07:34:47.741Z,99520.38
2023-11-27T07:37:14.206Z,99511.19
2023-11-27T07:39:41.014Z,99511.66
2023-11-27T07:42:07.891Z,99518.44
2023-11-27T07:44:34.384Z,99497.09
2023-11-27T07:47:00.996Z,99476.72
2023-11-27T07:49:27.449Z,99469.16
2023-11-27T07:51:58.980Z,99465.16
2023-11-27T07:54:26.003Z,99459.31
2023-11-27T07:56:54.167Z,99459.41
2023-11-27T07:59:20.696Z,99448.06
2023-11-27T08:01:47.414Z,99442.47
2023-11-27T08:04:13.917Z,99425.84
2023-11-27T08:06:40.372Z,99434.44
2023-11-27T08:09:08.480Z,99425.38
2023-11-27T08:11:35.550Z,99425.97
2023-11-27T08:14:02.131Z,99417.81
2023-11-27T08:16:28.902Z,99427.91
2023-11-27T08:18:55.347Z,99435.31
2023-11-27T08:21:21.918Z,99427.59
2023-11-27T08:23:48.805Z,99414.22
2023-11-27T08:26:16.265Z,99408.91
2023-11-27T08:28:42.728Z,99407.66
2023-11-27T08:31:10.142Z,99396.31
2023-11-27T08:33:37.329Z,99402.97
2023-11-27T08:36:04.632Z,99393.09
2023-11-27T08:38:34.302Z,99381.06
2023-11-27T08:41:00.789Z,99368.19
2023-11-27T08:43:28.259Z,99379.53
2023-11-27T08:45:55.252Z,99370.94
2023-11-27T08:48:28.478Z,99366.59
2023-11-27T08:51:01.230Z,99374.59
2023-11-27T08:53:30.475Z,99367.59
2023-11-27T08:55:58.642Z,99354.28
2023-11-27T08:58:25.155Z,99359.34
2023-11-27T09:00:52.513Z,99340.75
2023-11-27T09:03:20.140Z,99336.53
2023-11-27T09:05:47.403Z,99333.19
2023-11-27T09:08:14.883Z,99337.00
2023-11-27T09:10:41.465Z,99340.16
2023-11-27T09:13:08.866Z,99342.66
2023-11-27T09:15:35.775Z,99342.50
2023-11-27T09:18:02.838Z,99332.16
2023-11-27T09:20:29.640Z,99327.75
2023-11-27T09:22:57.809Z,99312.66
2023-11-27T09:25:25.354Z,99324.19
2023-11-27T09:27:52.191Z,99318.44
2023-11-27T09:30:19.469Z,99317.63
2023-11-27T09:32:46.364Z,99313.53
2023-11-27T09:35:14.125Z,99299.88
2023-11-27T09:37:40.626Z,99292.25
2023-11-27T09:40:09.959Z,99290.72
2023-11-27T09:42:46.329Z,99268.28
2023-11-27T09:45:18.060Z,99261.19
2023-11-27T09:47:48.743Z,99259.66
2023-11-27T09:50:19.557Z,99260.47
2023-11-27T09:53:01.195Z,99257.63
2023-11-27T09:55:33.294Z,99258.84
2023-11-27T09:58:00.852Z,99248.91
2023-11-27T10:00:29.042Z,99243.94
2023-11-27T10:02:55.737Z,99242.34
2023-11-27T10:05:23.467Z,99233.13
2023-11-27T10:07:58.241Z,99230.28
2023-11-27T10:10:28.902Z,99231.06
2023-11-27T10:13:03.351Z,99221.03
2023-11-27T10:15:36.020Z,99223.59
2023-11-27T10:18:06.125Z,99218.19
2023-11-27T10:20:33.212Z,99219.69
2023-11-27T10:23:00.236Z,99211.09
2023-11-27T10:25:26.676Z,99197.53
2023-11-27T10:27:58.868Z,99180.72
2023-11-27T10:30:26.626Z,99180.63
2023-11-27T10:32:53.531Z,99179.94
2023-11-27T10:35:27.139Z,99178.06
2023-11-27T10:37:58.135Z,99164.72
2023-11-27T10:40:28.080Z,99151.94
2023-11-27T10:43:02.790Z,99163.69
2023-11-27T10:45:31.207Z,99161.34
2023-11-27T10:48:02.685Z,99144.84
2023-11-27T10:50:33.417Z,99139.19
2023-11-27T10:53:01.102Z,99128.19
2023-11-27T10:55:30.404Z,99106.31
2023-11-27T10:57:57.118Z,99117.41
2023-11-27T11:00:31.010Z,99111.25
2023-11-27T11:03:09.691Z,99107.53
2023-11-27T11:05:44.138Z,99116.38
2023-11-27T11:08:11.038Z,99088.94
2023-11-27T11:10:39.482Z,99077.94
2023-11-27T11:13:08.987Z,99072.13
2023-11-27T11:15:49.398Z,99071.50
2023-11-27T11:18:44.632Z,99071.63
2023-11-27T11:21:51.474Z,99061.00
2023-11-27T11:24:25.314Z,99063.03
2023-11-27T11:27:03.379Z,99061.00
2023-11-27T11:29:34.198Z,99052.88
2023-11-27T11:32:02.852Z,99051.44
2023-11-27T11:34:33.820Z,99034.94
2023-11-27T11:37:01.640Z,99040.41
2023-11-27T11:39:28.355Z,99019.59
2023-11-27T11:42:03.739Z,99034.84
2023-11-27T11:44:35.375Z,99030.25
2023-11-27T11:47:22.780Z,99028.81
2023-11-27T11:49:49.307Z,99037.34
2023-11-27T11:52:19.635Z,99038.16
2023-11-27T11:54:48.850Z,99032.44
2023-11-27T11:57:17.549Z,99017.22
2023-11-27T11:59:49.605Z,99015.56
2023-11-27T12:02:20.291Z,99024.19
2023-11-27T12:04:49.472Z,99018.50
2023-11-27T12:07:15.979Z,99015.34
2023-11-27T12:09:44.913Z,99026.06
2023-11-27T12:12:16.064Z,99019.13
2023-11-27T12:14:43.696Z,99012.38
2023-11-27T12:17:10.416Z,99006.78
2023-11-27T12:19:37.252Z,98997.88
2023-11-27T12:22:05.719Z,98994.75
2023-11-27T12:24:32.102Z,98979.19
2023-11-27T12:26:58.475Z,98974.63
2023-11-27T12:29:27.225Z,98977.38
2023-11-27T12:31:54.598Z,98968.06
2023-11-27T12:34:26.945Z,98970.53
2023-11-27T12:36:56.208Z,98959.81
2023-11-27T12:39:26.641Z,98960.56
2023-11-27T12:42:02.816Z,98955.78
2023-11-27T12:44:33.083Z,98954.53
2023-11-27T12:52:12.467Z,98922.28
2023-11-27T12:54:39.281Z,98903.63
2023-11-27T12:57:11.689Z,98909.88
2023-11-27T12:59:41.860Z,98893.63
2023-11-27T13:02:08.495Z,98889.13
2023-11-27T13:04:39.111Z,98895.38
2023-11-27T13:07:10.421Z,98885.16
2023-11-27T13:09:38.708Z,98874.56
2023-11-27T13:12:27.560Z,98864.75
2023-11-27T13:14:54.218Z,98864.00
2023-11-27T13:17:22.103Z,98873.47
2023-11-27T13:19:56.867Z,98863.50
2023-11-27T13:22:24.588Z,98860.81
2023-11-27T13:24:51.980Z,98856.19
2023-11-27T13:27:22.005Z,98858.75
2023-11-27T13:29:51.179Z,98848.91
2023-11-27T13:32:18.663Z,98836.44
2023-11-27T13:34:56.408Z,98827.31
2023-11-27T13:37:29.391Z,98828.09
2023-11-27T13:39:58.658Z,98812.81
2023-11-27T13:42:25.883Z,98813.91
2023-11-27T13:44:52.490Z,98807.16
2023-11-27T13:47:21.426Z,98793.50
2023-11-27T13:49:49.864Z,98794.16
2023-11-27T13:52:18.444Z,98796.34
2023-11-27T13:54:49.981Z,98792.00
2023-11-27T13:57:28.295Z,98786.16
2023-11-27T13:59:58.140Z,98779.94
2023-11-27T14:02:37.907Z,98770.53
2023-11-27T14:05:09.034Z,98766.94
2023-11-27T14:07:41.991Z,98773.19
2023-11-27T14:10:24.017Z,98767.69
2023-11-27T14:13:00.630Z,98764.34
2023-11-27T14:15:38.298Z,98761.59
2023-11-27T14:18:23.739Z,98747.84
2023-11-27T14:21:13.966Z,98740.94
2023-11-27T14:23:40.463Z,98736.97
2023-11-27T14:26:10.216Z,98739.72
2023-11-27T14:28:48.740Z,98738.50
2023-11-27T14:31:23.525Z,98732.75
2023-11-27T14:33:51.994Z,98728.84
2023-11-27T14:36:18.730Z,98728.06
2023-11-27T14:38:47.229Z,98730.50
2023-11-27T14:41:14.335Z,98727.69
2023-11-27T14:43:41.054Z,98723.09
2023-11-27T14:46:16.338Z,98714.84
2023-11-27T14:48:44.087Z,98722.31
2023-11-27T14:51:13.703Z,98711.75
2023-11-27T14:53:49.516Z,98707.88
2023-11-27T14:56:16.249Z,98699.97
2023-11-27T14:58:42.676Z,98694.84
2023-11-27T15:01:10.542Z,98700.28
2023-11-27T15:03:40.815Z,98692.94
2023-11-27T15:06:08.769Z,98683.03
2023-11-27T15:08:35.199Z,98674.41
2023-11-27T15:11:04.299Z,98672.09
2023-11-27T15:13:30.881Z,98670.34
2023-11-27T15:15:59.297Z,98672.72
2023-11-27T15:18:25.840Z,98666.53
2023-11-27T15:20:53.246Z,98652.22
2023-11-27T15:23:19.728Z,98656.22
2023-11-27T15:25:46.692Z,98661.28
2023-11-27T15:28:14.582Z,98654.56
2023-11-27T15:30:41.032Z,98658.47
2023-11-27T15:33:09.182Z,98646.69
2023-11-27T15:35:36.212Z,98652.97
2023-11-27T15:38:04.161Z,98648.63
2023-11-27T15:40:33.885Z,98638.06
2023-11-27T15:43:00.495Z,98636.03
2023-11-27T15:45:29.181Z,98624.19
2023-11-27T15:48:00.231Z,98622.50
2023-11-27T15:50:32.208Z,98614.25
2023-11-27T15:53:01.568Z,98611.59
2023-11-27T15:55:29.658Z,98606.16
2023-11-27T15:57:56.170Z,98595.13
2023-11-27T16:00:23.284Z,98603.84
2023-11-27T16:02:50.716Z,98598.19
2023-11-27T16:05:18.784Z,98599.63
2023-11-27T16:07:46.325Z,98594.19
2023-11-27T16:10:16.949Z,98587.09
2023-11-27T16:12:43.990Z,98585.53
2023-11-27T16:15:14.403Z,98576.78
2023-11-27T16:18:00.972Z,98567.38
2023-11-27T16:20:28.217Z,98569.34
2023-11-27T16:22:55.086Z,98567.44
2023-11-27T16:25:22.776Z,98565.59
2023-11-27T16:27:49.659Z,98565.97
2023-11-27T16:30:22.424Z,98556.94
2023-11-27T16:32:49.770Z,98558.63
2023-11-27T16:35:16.541Z,98547.25
2023-11-27T16:37:44.082Z,98537.94
2023-11-27T16:40:16.052Z,98541.28
2023-11-27T16:42:44.173Z,98535.28
2023-11-27T16:45:11.509Z,98533.81
2023-11-27T16:47:38.346Z,98531.47
2023-11-27T16:50:13.673Z,98520.91
2023-11-27T16:52:41.190Z,98525.34
2023-11-27T16:55:08.827Z,98522.91
2023-11-27T16:57:35.349Z,98523.72
2023-11-27T17:00:02.017Z,98523.78
2023-11-27T17:02:28.628Z,98519.00
2023-11-27T17:04:55.252Z,98496.28
2023-11-27T17:07:22.993Z,98513.19
2023-11-27T17:09:49.450Z,98499.44
2023-11-27T17:12:15.990Z,98494.69
2023-11-27T17:14:42.760Z,98491.97
2023-11-27T17:17:09.342Z,98485.34
2023-11-27T17:19:35.974Z,98484.03
2023-11-27T17:22:02.386Z,98481.72
2023-11-27T17:24:28.797Z,98474.69
2023-11-27T17:26:55.202Z,98470.34
2023-11-27T17:29:21.609Z,98465.25
2023-11-27T17:31:50.182Z,98468.06
2023-11-27T17:34:16.839Z,98470.75
2023-11-27T17:36:44.227Z,98470.41
2023-11-27T17:39:10.620Z,98469.66
2023-11-27T17:41:38.005Z,98451.63
2023-11-27T17:44:04.598Z,98457.88
2023-11-27T17:46:32.306Z,98448.47
2023-11-27T17:48:59.982Z,98450.88
2023-11-27T17:51:26.700Z,98452.44
2023-11-27T17:53:54.301Z,98446.94
2023-11-27T17:56:28.253Z,98444.59
2023-11-27T17:59:01.129Z,98436.88
2023-11-27T18:01:28.389Z,98432.06
2023-11-27T18:03:54.936Z,98433.69
2023-11-27T18:06:21.340Z,98432.06
2023-11-27T18:08:47.830Z,98430.53
2023-11-27T18:11:14.182Z,98432.25
2023-11-27T18:13:41.996Z,98426.72
2023-11-27T18:16:09.620Z,98420.38
2023-11-27T18:18:36.082Z,98418.03
2023-11-27T18:21:02.639Z,98418.03
2023-11-27T18:23:29.074Z,98413.75
2023-11-27T18:25:55.427Z,98409.03
2023-11-27T18:28:21.817Z,98404.69
2023-11-27T18:30:48.262Z,98404.72
2023-11-27T18:33:14.748Z,98401.59
2023-11-27T18:35:41.674Z,98392.56
2023-11-27T18:38:08.875Z,98397.25
2023-11-27T18:40:36.437Z,98384.34
2023-11-27T18:43:02.987Z,98390.63
2023-11-27T18:45:29.418Z,98386.69
2023-11-27T18:47:55.884Z,98391.47
2023-11-27T18:50:22.411Z,98385.56
2023-11-27T18:52:49.587Z,98374.50
2023-11-27T18:55:16.225Z,98377.25
2023-11-27T18:57:42.625Z,98369.44
2023-11-27T19:00:15.090Z,98367.84
2023-11-27T19:02:42.204Z,98363.94
2023-11-27T19:05:10.679Z,98366.31
2023-11-27T19:07:37.143Z,98361.63
2023-11-27T19:10:03.989Z,98356.44
2023-11-27T19:12:30.453Z,98347.09
2023-11-27T19:14:57.196Z,98347.38
2023-11-27T19:17:23.667Z,98334.53
2023-11-27T19:19:50.568Z,98342.78
2023-11-27T19:22:17.647Z,98329.44
2023-11-27T19:24:46.673Z,98341.69
2023-11-27T19:27:13.300Z,98338.50
2023-11-27T19:29:39.819Z,98334.59
2023-11-27T19:32:08.149Z,98331.84
2023-11-27T19:34:34.699Z,98331.91
2023-11-27T19:37:04.594Z,98318.53
2023-11-27T19:39:31.756Z,98327.22
2023-11-27T19:41:58.110Z,98312.28
2023-11-27T19:44:24.488Z,98303.25
2023-11-27T19:46:57.443Z,98308.78
2023-11-27T19:49:25.743Z,98310.72
2023-11-27T19:51:53.965Z,98298.53
2023-11-27T19:54:20.554Z,98300.50
2023-11-27T19:56:47.376Z,98297.00
2023-11-27T19:59:13.993Z,98300.53
2023-11-27T20:01:40.599Z,98291.53
2023-11-27T20:04:07.284Z,98295.06
2023-11-27T20:06:33.989Z,98294.31
2023-11-27T20:09:00.495Z,98295.09
2023-11-27T20:11:26.911Z,98297.47
2023-11-27T20:13:55.359Z,98299.06
2023-11-27T20:16:21.904Z,98295.97
2023-11-27T20:18:49.754Z,98299.81
2023-11-27T20:21:16.853Z,98302.97
2023-11-27T20:23:43.530Z,98304.59
2023-11-27T20:26:10.168Z,98290.03
2023-11-27T20:28:36.570Z,98290.00
2023-11-27T20:31:03.322Z,98277.38
2023-11-27T20:33:41.050Z,98279.00
2023-11-27T20:36:08.165Z,98280.25
2023-11-27T20:38:34.993Z,98286.13
2023-11-27T20:41:03.981Z,98278.66
2023-11-27T20:43:30.684Z,98284.16
2023-11-27T20:45:58.378Z,98270.00
2023-11-27T20:48:28.198Z,98288.09
2023-11-27T20:50:54.996Z,98276.28
2023-11-27T20:53:22.011Z,98276.34
2023-11-27T20:55:48.845Z,98271.56
2023-11-27T20:58:52.494Z,98271.19
2023-11-27T21:01:09.391Z,98275.47
2023-11-27T21:03:35.930Z,98267.72
2023-11-27T21:06:02.412Z,98266.13
2023-11-27T21:08:28.852Z,98268.06
2023-11-27T21:10:55.393Z,98264.50
2023-11-27T21:13:25.168Z,98262.56
2023-11-27T21:15:51.947Z,98259.81
2023-11-27T21:18:20.231Z,98255.13
2023-11-27T21:20:47.082Z,98254.00
2023-11-27T21:23:14.422Z,98249.66
2023-11-27T21:25:47.073Z,98256.72
2023-11-27T21:28:14.558Z,98252.03
2023-11-27T21:30:41.383Z,98247.66
2023-11-27T21:33:08.201Z,98252.38
2023-11-27T21:35:34.747Z,98248.06
2023-11-27T21:38:01.131Z,98251.09
2023-11-27T21:40:27.760Z,98251.88
2023-11-27T21:42:54.256Z,98246.41
2023-11-27T21:45:20.835Z,98246.47
2023-11-27T21:47:48.414Z,98253.50
2023-11-27T21:50:14.944Z,98253.50
2023-11-27T21:52:41.454Z,98256.72
2023-11-27T21:55:08.314Z,98249.22
2023-11-27T21:57:34.815Z,98242.94
2023-11-27T22:00:01.640Z,98237.00
2023-11-27T22:02:28.521Z,98241.38
2023-11-27T22:04:55.094Z,98233.06
2023-11-27T22:07:21.568Z,98242.09
2023-11-27T22:09:50.736Z,98237.75
2023-11-27T22:12:17.149Z,98233.13
2023-11-27T22:14:43.643Z,98229.53
2023-11-27T22:17:10.109Z,98220.09
2023-11-27T22:19:37.203Z,98232.28
2023-11-27T22:22:03.605Z,98222.84
2023-11-27T22:24:30.132Z,98228.34
2023-11-27T22:26:58.374Z,98226.81
2023-11-27T22:29:24.800Z,98228.44
2023-11-27T22:31:51.898Z,98235.53
2023-11-27T22:34:18.849Z,98237.09
2023-11-27T22:36:45.968Z,98239.44
2023-11-27T22:39:13.231Z,98242.56
2023-11-27T22:41:43.820Z,98242.91
2023-11-27T22:44:10.789Z,98238.16
2023-11-27T22:46:39.314Z,98236.63
2023-11-27T22:49:06.409Z,98235.91
2023-11-27T22:51:32.853Z,98239.88
2023-11-27T22:53:59.508Z,98233.94
2023-11-27T22:56:27.351Z,98236.75
2023-11-27T22:59:02.885Z,98236.38
2023-11-27T23:01:33.773Z,98233.63
2023-11-27T23:04:01.465Z,98235.59
2023-11-27T23:06:36.294Z,98235.97
2023-11-27T23:09:04.611Z,98235.19
2023-11-27T23:11:31.006Z,98246.16
2023-11-27T23:13:57.584Z,98248.13
2023-11-27T23:16:24.122Z,98239.47
2023-11-27T23:18:50.613Z,98238.75
2023-11-27T23:21:16.993Z,98239.13
2023-11-27T23:23:43.970Z,98243.44
2023-11-27T23:26:10.469Z,98235.53
2023-11-27T23:28:36.892Z,98245.00
2023-11-27T23:31:04.683Z,98249.00
2023-11-27T23:33:32.296Z,98248.19
2023-11-27T23:35:58.823Z,98249.00
2023-11-27T23:38:25.274Z,98251.75
2023-11-27T23:40:51.738Z,98258.44
2023-11-27T23:43:18.382Z,98262.00
2023-11-27T23:45:44.823Z,98266.72
2023-11-27T23:48:11.261Z,98266.34
2023-11-27T23:50:37.750Z,98269.94
2023-11-27T23:53:07.392Z,98271.88
2023-11-27T23:55:34.543Z,98267.97
2023-11-27T23:58:00.935Z,98281.41
